Time,TemperatureF,DewpointF,PressureIn,WindDirection,WindDirectionDegrees,WindSpeedMPH,WindSpeedGustMPH,Humidity,HourlyPrecipIn,Conditions,Clouds,dailyrainin,SoftwareType,DateUTC
2013-01-31 00:02:00,47.1,44.0,30.22,NW,314,8.0,10.0,89,0.00,,,0.00,WeatherTracker,2013-01-31 08:02:00,
2013-01-31 00:07:00,47.9,44.8,30.22,NW,321,6.0,10.0,89,0.00,,,0.00,WeatherTracker,2013-01-31 08:07:00,
2013-01-31 00:12:00,48.9,45.8,30.22,NNW,331,6.0,10.0,89,0.00,,,0.00,WeatherTracker,2013-01-31 08:12:00,
2013-01-31 00:17:00,49.5,45.8,30.22,NW,304,6.0,9.0,87,0.00,,,0.00,WeatherTracker,2013-01-31 08:17:00,
2013-01-31 00:22:00,50.0,46.0,30.22,NW,325,3.0,9.0,86,0.00,,,0.00,WeatherTracker,2013-01-31 08:22:00,
2013-01-31 00:27:00,50.1,45.8,30.22,NW,325,5.0,9.0,85,0.00,,,0.00,WeatherTracker,2013-01-31 08:27:00,
2013-01-31 00:33:00,50.2,45.9,30.22,NW,307,4.0,7.0,85,0.00,,,0.00,WeatherTracker,2013-01-31 08:33:00,
2013-01-31 00:38:00,50.5,45.8,30.22,NW,309,4.0,8.0,84,0.00,,,0.00,WeatherTracker,2013-01-31 08:38:00,
2013-01-31 00:43:00,50.7,45.7,30.22,NNW,327,7.0,8.0,83,0.00,,,0.00,WeatherTracker,2013-01-31 08:43:00,
2013-01-31 00:48:00,50.7,45.7,30.22,NNW,342,4.0,8.0,83,0.00,,,0.00,WeatherTracker,2013-01-31 08:48:00,
2013-01-31 00:53:00,50.2,45.2,30.22,NNW,327,6.0,9.0,83,0.00,,,0.00,WeatherTracker,2013-01-31 08:53:00,
2013-01-31 00:58:00,49.2,44.6,30.22,NNW,333,5.0,9.0,84,0.00,,,0.00,WeatherTracker,2013-01-31 08:58:00,
2013-01-31 01:03:00,48.4,44.1,30.22,NNW,333,7.0,9.0,85,0.00,,,0.00,WeatherTracker,2013-01-31 09:03:00,
2013-01-31 01:08:00,48.0,44.0,30.22,NNW,327,5.0,7.0,86,0.00,,,0.00,WeatherTracker,2013-01-31 09:08:00,
2013-01-31 01:13:00,47.9,43.9,30.22,NW,319,6.0,9.0,86,0.00,,,0.00,WeatherTracker,2013-01-31 09:13:00,
2013-01-31 01:18:00,47.8,44.1,30.21,NNW,340,6.0,10.0,87,0.00,,,0.00,WeatherTracker,2013-01-31 09:18:00,
2013-01-31 01:23:00,47.6,43.9,30.21,WNW,294,8.0,10.0,87,0.00,,,0.00,WeatherTracker,2013-01-31 09:23:00,
2013-01-31 01:28:00,47.3,43.6,30.21,NW,311,4.0,10.0,87,0.00,,,0.00,WeatherTracker,2013-01-31 09:28:00,
2013-01-31 01:33:00,47.1,43.4,30.21,NNW,344,7.0,10.0,87,0.00,,,0.00,WeatherTracker,2013-01-31 09:33:00,
2013-01-31 01:38:00,47.2,43.8,30.21,NNW,340,4.0,8.0,88,0.00,,,0.00,WeatherTracker,2013-01-31 09:38:00,
2013-01-31 01:43:00,47.1,43.7,30.21,NNW,334,5.0,7.0,88,0.00,,,0.00,WeatherTracker,2013-01-31 09:43:00,
2013-01-31 01:48:00,46.9,43.5,30.21,NW,322,5.0,8.0,88,0.00,,,0.00,WeatherTracker,2013-01-31 09:48:00,
2013-01-31 01:53:00,46.8,43.4,30.21,NNW,340,4.0,9.0,88,0.00,,,0.00,WeatherTracker,2013-01-31 09:53:00,
2013-01-31 01:58:00,46.9,43.8,30.21,NNW,334,5.0,11.0,89,0.00,,,0.00,WeatherTracker,2013-01-31 09:58:00,
2013-01-31 02:03:00,46.7,43.6,30.22,NNW,331,5.0,11.0,89,0.00,,,0.00,WeatherTracker,2013-01-31 10:03:00,
2013-01-31 02:08:00,46.4,43.3,30.22,NW,324,4.0,9.0,89,0.00,,,0.00,WeatherTracker,2013-01-31 10:08:00,
2013-01-31 02:14:00,46.4,43.3,30.22,NW,306,6.0,10.0,89,0.00,,,0.00,WeatherTracker,2013-01-31 10:14:00,
2013-01-31 02:19:00,47.0,44.2,30.22,NW,319,7.0,10.0,90,0.00,,,0.00,WeatherTracker,2013-01-31 10:19:00,
2013-01-31 02:24:00,47.4,44.3,30.22,NNW,344,3.0,9.0,89,0.00,,,0.00,WeatherTracker,2013-01-31 10:24:00,
2013-01-31 02:29:00,47.4,44.3,30.21,NNW,344,4.0,9.0,89,0.00,,,0.00,WeatherTracker,2013-01-31 10:29:00,
2013-01-31 02:34:00,48.1,45.0,30.21,NW,318,5.0,9.0,89,0.00,,,0.00,WeatherTracker,2013-01-31 10:34:00,
2013-01-31 02:39:00,48.1,44.7,30.21,NW,309,6.0,10.0,88,0.00,,,0.00,WeatherTracker,2013-01-31 10:39:00,
2013-01-31 02:44:00,48.0,44.6,30.21,NNW,333,4.0,10.0,88,0.00,,,0.00,WeatherTracker,2013-01-31 10:44:00,
2013-01-31 02:49:00,48.3,44.9,30.21,NNW,340,6.0,9.0,88,0.00,,,0.00,WeatherTracker,2013-01-31 10:49:00,
2013-01-31 02:54:00,47.7,44.0,30.21,NNW,332,6.0,9.0,87,0.00,,,0.00,WeatherTracker,2013-01-31 10:54:00,
2013-01-31 02:59:00,47.2,43.5,30.21,NW,315,4.0,10.0,87,0.00,,,0.00,WeatherTracker,2013-01-31 10:59:00,
2013-01-31 03:04:00,47.1,43.7,30.21,NNW,334,5.0,10.0,88,0.00,,,0.00,WeatherTracker,2013-01-31 11:04:00,
2013-01-31 03:09:00,47.1,43.7,30.21,NW,325,3.0,9.0,88,0.00,,,0.00,WeatherTracker,2013-01-31 11:09:00,
2013-01-31 03:14:00,47.9,44.8,30.21,NW,319,4.0,9.0,89,0.00,,,0.00,WeatherTracker,2013-01-31 11:14:00,
2013-01-31 03:19:00,48.5,45.1,30.21,NW,313,7.0,9.0,88,0.00,,,0.00,WeatherTracker,2013-01-31 11:19:00,
2013-01-31 03:24:00,49.1,45.4,30.21,NW,312,6.0,11.0,87,0.00,,,0.00,WeatherTracker,2013-01-31 11:24:00,
2013-01-31 03:29:00,49.1,45.1,30.20,NW,321,3.0,11.0,86,0.00,,,0.00,WeatherTracker,2013-01-31 11:29:00,
2013-01-31 03:34:00,49.3,45.3,30.20,NW,311,3.0,8.0,86,0.00,,,0.00,WeatherTracker,2013-01-31 11:34:00,
2013-01-31 03:39:00,49.4,45.1,30.20,NW,323,3.0,8.0,85,0.00,,,0.00,WeatherTracker,2013-01-31 11:39:00,
2013-01-31 03:44:00,49.5,45.2,30.20,NW,314,6.0,7.0,85,0.00,,,0.00,WeatherTracker,2013-01-31 11:44:00,
2013-01-31 03:49:00,49.6,45.0,30.20,NNW,344,5.0,7.0,84,0.00,,,0.00,WeatherTracker,2013-01-31 11:49:00,
2013-01-31 03:54:00,49.2,44.6,30.20,NW,318,5.0,6.0,84,0.00,,,0.00,WeatherTracker,2013-01-31 11:54:00,
2013-01-31 03:59:00,49.3,45.0,30.20,NW,313,4.0,8.0,85,0.00,,,0.00,WeatherTracker,2013-01-31 11:59:00,
2013-01-31 04:04:00,49.1,44.8,30.20,NW,326,4.0,8.0,85,0.00,,,0.00,WeatherTracker,2013-01-31 12:04:00,
2013-01-31 04:09:00,48.5,44.2,30.20,NNW,338,4.0,7.0,85,0.00,,,0.00,WeatherTracker,2013-01-31 12:09:00,
2013-01-31 04:14:00,47.9,43.9,30.20,NW,307,7.0,9.0,86,0.00,,,0.00,WeatherTracker,2013-01-31 12:14:00,
2013-01-31 04:20:00,48.4,44.4,30.20,NW,318,5.0,9.0,86,0.00,,,0.00,WeatherTracker,2013-01-31 12:20:00,
2013-01-31 04:25:00,48.7,44.7,30.20,WNW,303,5.0,9.0,86,0.00,,,0.00,WeatherTracker,2013-01-31 12:25:00,
2013-01-31 04:30:00,49.6,45.0,30.20,NW,315,4.0,7.0,84,0.00,,,0.00,WeatherTracker,2013-01-31 12:30:00,
2013-01-31 04:35:00,49.8,44.8,30.20,NW,325,5.0,9.0,83,0.00,,,0.00,WeatherTracker,2013-01-31 12:35:00,
2013-01-31 04:40:00,49.5,44.6,30.20,NNW,331,4.0,9.0,83,0.00,,,0.00,WeatherTracker,2013-01-31 12:40:00,
2013-01-31 04:45:00,49.2,44.3,30.20,NW,324,5.0,7.0,83,0.00,,,0.00,WeatherTracker,2013-01-31 12:45:00,
2013-01-31 04:50:00,49.2,44.6,30.20,NW,304,7.0,8.0,84,0.00,,,0.00,WeatherTracker,2013-01-31 12:50:00,
2013-01-31 04:55:00,49.2,44.3,30.20,NW,322,6.0,8.0,83,0.00,,,0.00,WeatherTracker,2013-01-31 12:55:00,
2013-01-31 05:00:00,48.8,43.9,30.20,NW,318,5.0,8.0,83,0.00,,,0.00,WeatherTracker,2013-01-31 13:00:00,
2013-01-31 05:05:00,49.4,44.8,30.20,WNW,296,9.0,11.0,84,0.00,,,0.00,WeatherTracker,2013-01-31 13:05:00,
2013-01-31 05:10:00,50.0,44.7,30.20,North,355,6.0,11.0,82,0.00,,,0.00,WeatherTracker,2013-01-31 13:10:00,
2013-01-31 05:15:00,50.0,44.7,30.21,NNW,334,4.0,13.0,82,0.00,,,0.00,WeatherTracker,2013-01-31 13:15:00,
2013-01-31 05:20:00,49.9,44.3,30.21,NNW,343,5.0,13.0,81,0.00,,,0.00,WeatherTracker,2013-01-31 13:20:00,
2013-01-31 05:25:00,49.8,44.5,30.21,WNW,300,5.0,9.0,82,0.00,,,0.00,WeatherTracker,2013-01-31 13:25:00,
2013-01-31 05:30:00,49.9,44.3,30.21,NW,321,4.0,9.0,81,0.00,,,0.00,WeatherTracker,2013-01-31 13:30:00,
2013-01-31 05:35:00,49.6,44.0,30.21,WNW,291,4.0,10.0,81,0.00,,,0.00,WeatherTracker,2013-01-31 13:35:00,
2013-01-31 05:40:00,49.0,43.7,30.21,NNW,342,5.0,10.0,82,0.00,,,0.00,WeatherTracker,2013-01-31 13:40:00,
2013-01-31 05:45:00,48.6,43.7,30.21,NNW,331,4.0,9.0,83,0.00,,,0.00,WeatherTracker,2013-01-31 13:45:00,
2013-01-31 05:50:00,48.4,43.8,30.21,NW,314,6.0,9.0,84,0.00,,,0.00,WeatherTracker,2013-01-31 13:50:00,
2013-01-31 05:55:00,48.2,43.6,30.21,NNW,336,5.0,9.0,84,0.00,,,0.00,WeatherTracker,2013-01-31 13:55:00,
2013-01-31 06:00:00,48.5,43.9,30.21,NW,319,3.0,9.0,84,0.00,,,0.00,WeatherTracker,2013-01-31 14:00:00,
2013-01-31 06:05:00,48.9,44.0,30.21,WNW,300,4.0,10.0,83,0.00,,,0.00,WeatherTracker,2013-01-31 14:05:00,
2013-01-31 06:11:00,49.0,44.1,30.21,NW,306,6.0,10.0,83,0.00,,,0.00,WeatherTracker,2013-01-31 14:11:00,
2013-01-31 06:16:00,48.9,44.0,30.21,NW,315,4.0,7.0,83,0.00,,,0.00,WeatherTracker,2013-01-31 14:16:00,
2013-01-31 06:21:00,48.9,44.0,30.21,NNW,338,4.0,7.0,83,0.00,,,0.00,WeatherTracker,2013-01-31 14:21:00,
2013-01-31 06:26:00,48.9,44.0,30.21,NW,320,3.0,7.0,83,0.00,,,0.00,WeatherTracker,2013-01-31 14:26:00,
2013-01-31 06:31:00,48.9,44.0,30.21,NW,325,8.0,9.0,83,0.00,,,0.00,WeatherTracker,2013-01-31 14:31:00,
2013-01-31 06:36:00,48.9,44.0,30.21,WNW,303,6.0,9.0,83,0.00,,,0.00,WeatherTracker,2013-01-31 14:36:00,
2013-01-31 06:41:00,48.7,43.8,30.21,WNW,301,9.0,9.0,83,0.00,,,0.00,WeatherTracker,2013-01-31 14:41:00,
2013-01-31 06:46:00,48.6,44.0,30.21,NNW,340,5.0,10.0,84,0.00,,,0.00,WeatherTracker,2013-01-31 14:46:00,
2013-01-31 06:51:00,48.5,43.9,30.21,NNW,342,6.0,10.0,84,0.00,,,0.00,WeatherTracker,2013-01-31 14:51:00,
2013-01-31 06:56:00,48.4,44.1,30.21,North,355,4.0,10.0,85,0.00,,,0.00,WeatherTracker,2013-01-31 14:56:00,
2013-01-31 07:01:00,48.0,43.7,30.22,NNW,344,4.0,10.0,85,0.00,,,0.00,WeatherTracker,2013-01-31 15:01:00,
2013-01-31 07:06:00,47.8,43.8,30.22,North,355,5.0,7.0,86,0.00,,,0.00,WeatherTracker,2013-01-31 15:06:00,
2013-01-31 07:11:00,47.7,43.7,30.22,NNW,339,2.0,7.0,86,0.00,,,0.00,WeatherTracker,2013-01-31 15:11:00,
2013-01-31 07:16:00,47.5,43.8,30.22,NW,321,3.0,6.0,87,0.00,,,0.00,WeatherTracker,2013-01-31 15:16:00,
2013-01-31 07:21:00,47.3,43.6,30.22,NW,321,3.0,6.0,87,0.00,,,0.00,WeatherTracker,2013-01-31 15:21:00,
2013-01-31 07:26:00,47.2,43.5,30.22,NW,321,3.0,5.0,87,0.00,,,0.00,WeatherTracker,2013-01-31 15:26:00,
2013-01-31 07:31:00,47.3,43.6,30.22,WNW,298,5.0,5.0,87,0.00,,,0.00,WeatherTracker,2013-01-31 15:31:00,
2013-01-31 07:36:00,47.6,43.9,30.22,NNW,338,4.0,7.0,87,0.00,,,0.00,WeatherTracker,2013-01-31 15:36:00,
2013-01-31 07:42:00,47.9,43.9,30.22,NNW,327,5.0,10.0,86,0.00,,,0.00,WeatherTracker,2013-01-31 15:42:00,
2013-01-31 07:47:00,48.1,44.1,30.23,NNW,333,8.0,10.0,86,0.00,,,0.00,WeatherTracker,2013-01-31 15:47:00,
2013-01-31 07:52:00,48.2,44.2,30.23,NNW,340,5.0,9.0,86,0.00,,,0.00,WeatherTracker,2013-01-31 15:52:00,
2013-01-31 07:57:00,48.3,44.3,30.23,NNW,327,4.0,9.0,86,0.00,,,0.00,WeatherTracker,2013-01-31 15:57:00,
2013-01-31 08:02:00,48.4,44.4,30.23,NW,321,6.0,9.0,86,0.00,,,0.00,WeatherTracker,2013-01-31 16:02:00,
2013-01-31 08:07:00,48.4,44.4,30.23,NNW,336,6.0,11.0,86,0.00,,,0.00,WeatherTracker,2013-01-31 16:07:00,
2013-01-31 08:12:00,48.6,44.6,30.23,NW,322,4.0,11.0,86,0.00,,,0.00,WeatherTracker,2013-01-31 16:12:00,
2013-01-31 08:17:00,48.7,44.7,30.23,NNW,345,7.0,9.0,86,0.00,,,0.00,WeatherTracker,2013-01-31 16:17:00,
2013-01-31 08:22:00,48.8,44.8,30.23,NNW,338,5.0,9.0,86,0.00,,,0.00,WeatherTracker,2013-01-31 16:22:00,
2013-01-31 08:27:00,49.0,44.7,30.23,NNW,344,6.0,10.0,85,0.00,,,0.00,WeatherTracker,2013-01-31 16:27:00,
2013-01-31 08:32:00,49.1,44.8,30.24,NNW,338,7.0,10.0,85,0.00,,,0.00,WeatherTracker,2013-01-31 16:32:00,
2013-01-31 08:37:00,49.3,45.0,30.24,North,349,7.0,10.0,85,0.00,,,0.00,WeatherTracker,2013-01-31 16:37:00,
2013-01-31 08:42:00,49.5,45.2,30.24,NNW,329,5.0,9.0,85,0.00,,,0.00,WeatherTracker,2013-01-31 16:42:00,
2013-01-31 08:47:00,49.5,45.2,30.24,North,355,5.0,10.0,85,0.00,,,0.00,WeatherTracker,2013-01-31 16:47:00,
2013-01-31 08:52:00,49.6,45.3,30.24,NNW,341,6.0,10.0,85,0.00,,,0.00,WeatherTracker,2013-01-31 16:52:00,
2013-01-31 08:57:00,49.6,45.3,30.24,NNW,344,9.0,12.0,85,0.00,,,0.00,WeatherTracker,2013-01-31 16:57:00,
2013-01-31 09:02:00,49.7,45.1,30.24,NNW,342,8.0,12.0,84,0.00,,,0.00,WeatherTracker,2013-01-31 17:02:00,
2013-01-31 09:07:00,49.9,45.3,30.24,North,360,9.0,11.0,84,0.00,,,0.00,WeatherTracker,2013-01-31 17:07:00,
2013-01-31 09:12:00,49.9,44.9,30.24,NNW,348,9.0,13.0,83,0.00,,,0.00,WeatherTracker,2013-01-31 17:12:00,
2013-01-31 09:17:00,49.9,45.3,30.24,North,9,11.0,13.0,84,0.00,,,0.00,WeatherTracker,2013-01-31 17:17:00,
2013-01-31 09:23:00,50.0,45.0,30.24,North,350,13.0,13.0,83,0.00,,,0.00,WeatherTracker,2013-01-31 17:23:00,
2013-01-31 09:28:00,50.3,45.3,30.24,North,360,5.0,13.0,83,0.00,,,0.00,WeatherTracker,2013-01-31 17:28:00,
2013-01-31 09:33:00,50.4,45.4,30.24,North,355,11.0,13.0,83,0.00,,,0.00,WeatherTracker,2013-01-31 17:33:00,
2013-01-31 09:38:00,50.5,45.2,30.24,North,350,5.0,11.0,82,0.00,,,0.00,WeatherTracker,2013-01-31 17:38:00,
2013-01-31 09:43:00,50.8,45.5,30.24,NNW,348,10.0,11.0,82,0.00,,,0.00,WeatherTracker,2013-01-31 17:43:00,
2013-01-31 09:48:00,51.1,45.8,30.24,NNW,336,10.0,11.0,82,0.00,,,0.00,WeatherTracker,2013-01-31 17:48:00,
2013-01-31 09:53:00,51.4,45.8,30.24,North,350,6.0,12.0,81,0.00,,,0.00,WeatherTracker,2013-01-31 17:53:00,
2013-01-31 09:58:00,51.7,45.7,30.24,NNW,337,10.0,12.0,80,0.00,,,0.00,WeatherTracker,2013-01-31 17:58:00,
2013-01-31 10:03:00,51.9,45.6,30.24,NNW,347,5.0,12.0,79,0.00,,,0.00,WeatherTracker,2013-01-31 18:03:00,
2013-01-31 10:08:00,52.0,45.7,30.24,NNW,336,6.0,13.0,79,0.00,,,0.00,WeatherTracker,2013-01-31 18:08:00,
2013-01-31 10:13:00,52.3,46.0,30.24,NNW,346,6.0,13.0,79,0.00,,,0.00,WeatherTracker,2013-01-31 18:13:00,
2013-01-31 10:18:00,52.5,45.8,30.24,NNW,333,6.0,11.0,78,0.00,,,0.00,WeatherTracker,2013-01-31 18:18:00,
2013-01-31 10:23:00,52.7,46.0,30.24,North,360,12.0,12.0,78,0.00,,,0.00,WeatherTracker,2013-01-31 18:23:00,
2013-01-31 10:28:00,52.9,46.2,30.24,North,355,6.0,12.0,78,0.00,,,0.00,WeatherTracker,2013-01-31 18:28:00,
2013-01-31 10:33:00,53.0,46.3,30.24,NNW,348,4.0,12.0,78,0.00,,,0.00,WeatherTracker,2013-01-31 18:33:00,
2013-01-31 10:38:00,53.4,46.7,30.24,NW,309,4.0,10.0,78,0.00,,,0.00,WeatherTracker,2013-01-31 18:38:00,
2013-01-31 10:43:00,53.6,46.2,30.24,NW,313,6.0,7.0,76,0.00,,,0.00,WeatherTracker,2013-01-31 18:43:00,
2013-01-31 10:48:00,53.8,46.4,30.23,WNW,297,3.0,9.0,76,0.00,,,0.00,WeatherTracker,2013-01-31 18:48:00,
2013-01-31 10:53:00,54.1,46.7,30.23,NNW,336,4.0,9.0,76,0.00,,,0.00,WeatherTracker,2013-01-31 18:53:00,
2013-01-31 10:58:00,54.4,47.0,30.23,NW,312,7.0,8.0,76,0.00,,,0.00,WeatherTracker,2013-01-31 18:58:00,
2013-01-31 11:03:00,54.6,47.2,30.23,NNW,336,6.0,11.0,76,0.00,,,0.00,WeatherTracker,2013-01-31 19:03:00,
2013-01-31 11:08:00,54.6,47.2,30.23,North,349,7.0,11.0,76,0.00,,,0.00,WeatherTracker,2013-01-31 19:08:00,
2013-01-31 11:13:00,54.5,47.1,30.23,North,349,7.0,11.0,76,0.00,,,0.00,WeatherTracker,2013-01-31 19:13:00,
2013-01-31 11:18:00,54.4,47.0,30.23,NNW,346,6.0,11.0,76,0.00,,,0.00,WeatherTracker,2013-01-31 19:18:00,
2013-01-31 11:23:00,54.5,47.1,30.23,NNW,344,10.0,13.0,76,0.00,,,0.00,WeatherTracker,2013-01-31 19:23:00,
2013-01-31 11:29:00,54.6,47.2,30.22,NNW,346,7.0,13.0,76,0.00,,,0.00,WeatherTracker,2013-01-31 19:29:00,
2013-01-31 11:34:00,55.0,47.6,30.22,NNW,345,4.0,12.0,76,0.00,,,0.00,WeatherTracker,2013-01-31 19:34:00,
2013-01-31 11:39:00,55.3,47.9,30.22,North,355,4.0,11.0,76,0.00,,,0.00,WeatherTracker,2013-01-31 19:39:00,
2013-01-31 11:44:00,55.5,47.7,30.21,NNW,341,7.0,12.0,75,0.00,,,0.00,WeatherTracker,2013-01-31 19:44:00,
2013-01-31 11:49:00,55.7,47.9,30.21,North,355,5.0,12.0,75,0.00,,,0.00,WeatherTracker,2013-01-31 19:49:00,
2013-01-31 11:54:00,56.0,47.8,30.21,North,355,6.0,11.0,74,0.00,,,0.00,WeatherTracker,2013-01-31 19:54:00,
2013-01-31 11:59:00,56.2,48.0,30.21,North,355,5.0,10.0,74,0.00,,,0.00,WeatherTracker,2013-01-31 19:59:00,
2013-01-31 12:04:00,56.4,47.9,30.21,NNW,348,9.0,11.0,73,0.00,,,0.00,WeatherTracker,2013-01-31 20:04:00,
2013-01-31 12:09:00,56.5,47.9,30.21,North,355,7.0,11.0,73,0.00,,,0.00,WeatherTracker,2013-01-31 20:09:00,
2013-01-31 12:14:00,56.7,48.1,30.20,North,355,10.0,11.0,73,0.00,,,0.00,WeatherTracker,2013-01-31 20:14:00,
2013-01-31 12:19:00,56.8,48.2,30.20,NNW,348,7.0,11.0,73,0.00,,,0.00,WeatherTracker,2013-01-31 20:19:00,
2013-01-31 12:24:00,57.1,48.2,30.20,North,355,7.0,11.0,72,0.00,,,0.00,WeatherTracker,2013-01-31 20:24:00,
2013-01-31 12:29:00,57.5,48.5,30.19,NNW,347,5.0,11.0,72,0.00,,,0.00,WeatherTracker,2013-01-31 20:29:00,
2013-01-31 12:34:00,57.9,48.6,30.19,North,355,6.0,11.0,71,0.00,,,0.00,WeatherTracker,2013-01-31 20:34:00,
2013-01-31 12:39:00,58.1,48.4,30.19,North,360,6.0,11.0,70,0.00,,,0.00,WeatherTracker,2013-01-31 20:39:00,
2013-01-31 12:44:00,58.2,48.5,30.19,North,355,6.0,12.0,70,0.00,,,0.00,WeatherTracker,2013-01-31 20:44:00,
2013-01-31 12:49:00,58.3,48.6,30.19,North,360,9.0,12.0,70,0.00,,,0.00,WeatherTracker,2013-01-31 20:49:00,
2013-01-31 12:54:00,58.3,48.6,30.19,North,5,10.0,12.0,70,0.00,,,0.00,WeatherTracker,2013-01-31 20:54:00,
2013-01-31 12:59:00,58.5,48.7,30.18,North,5,7.0,13.0,70,0.00,,,0.00,WeatherTracker,2013-01-31 20:59:00,
2013-01-31 13:04:00,58.8,48.3,30.18,North,355,10.0,12.0,68,0.00,,,0.00,WeatherTracker,2013-01-31 21:04:00,
2013-01-31 13:10:00,59.1,48.5,30.18,North,360,12.0,12.0,68,0.00,,,0.00,WeatherTracker,2013-01-31 21:10:00,
2013-01-31 13:15:00,59.2,48.2,30.17,North,355,10.0,12.0,67,0.00,,,0.00,WeatherTracker,2013-01-31 21:15:00,
2013-01-31 13:20:00,59.2,48.2,30.17,North,5,7.0,12.0,67,0.00,,,0.00,WeatherTracker,2013-01-31 21:20:00,
2013-01-31 13:25:00,59.3,48.3,30.17,North,355,6.0,13.0,67,0.00,,,0.00,WeatherTracker,2013-01-31 21:25:00,
2013-01-31 13:30:00,59.3,48.7,30.17,NNW,348,7.0,13.0,68,0.00,,,0.00,WeatherTracker,2013-01-31 21:30:00,
2013-01-31 13:35:00,59.4,48.4,30.17,NNW,344,5.0,12.0,67,0.00,,,0.00,WeatherTracker,2013-01-31 21:35:00,
2013-01-31 13:40:00,59.5,48.5,30.17,NNW,348,6.0,10.0,67,0.00,,,0.00,WeatherTracker,2013-01-31 21:40:00,
2013-01-31 13:45:00,59.6,48.6,30.16,NNW,348,8.0,10.0,67,0.00,,,0.00,WeatherTracker,2013-01-31 21:45:00,
2013-01-31 13:50:00,60.0,48.6,30.16,NNW,343,7.0,11.0,66,0.00,,,0.00,WeatherTracker,2013-01-31 21:50:00,
2013-01-31 13:55:00,60.1,48.7,30.16,NNW,329,5.0,11.0,66,0.00,,,0.00,WeatherTracker,2013-01-31 21:55:00,
2013-01-31 14:00:00,60.2,48.8,30.15,NNW,347,5.0,10.0,66,0.00,,,0.00,WeatherTracker,2013-01-31 22:00:00,
2013-01-31 14:05:00,60.4,49.0,30.15,NNW,346,4.0,10.0,66,0.00,,,0.00,WeatherTracker,2013-01-31 22:05:00,
2013-01-31 14:10:00,60.4,49.0,30.15,NNW,335,8.0,10.0,66,0.00,,,0.00,WeatherTracker,2013-01-31 22:10:00,
2013-01-31 14:15:00,60.5,49.5,30.15,NNW,336,5.0,10.0,67,0.00,,,0.00,WeatherTracker,2013-01-31 22:15:00,
2013-01-31 14:20:00,60.4,49.0,30.15,North,355,6.0,9.0,66,0.00,,,0.00,WeatherTracker,2013-01-31 22:20:00,
2013-01-31 14:26:00,60.6,48.8,30.15,NNW,345,5.0,9.0,65,0.00,,,0.00,WeatherTracker,2013-01-31 22:26:00,
2013-01-31 14:31:00,60.6,48.8,30.15,North,355,6.0,10.0,65,0.00,,,0.00,WeatherTracker,2013-01-31 22:31:00,
2013-01-31 14:36:00,60.5,48.7,30.15,North,360,7.0,11.0,65,0.00,,,0.00,WeatherTracker,2013-01-31 22:36:00,
2013-01-31 14:41:00,60.2,48.4,30.15,North,355,5.0,11.0,65,0.00,,,0.00,WeatherTracker,2013-01-31 22:41:00,
2013-01-31 14:46:00,60.3,48.5,30.15,North,360,6.0,10.0,65,0.00,,,0.00,WeatherTracker,2013-01-31 22:46:00,
2013-01-31 14:51:00,60.5,48.7,30.15,North,350,7.0,8.0,65,0.00,,,0.00,WeatherTracker,2013-01-31 22:51:00,
2013-01-31 14:56:00,60.6,48.8,30.15,NNW,337,3.0,7.0,65,0.00,,,0.00,WeatherTracker,2013-01-31 22:56:00,
2013-01-31 15:01:00,60.7,49.3,30.15,NNW,332,4.0,7.0,66,0.00,,,0.00,WeatherTracker,2013-01-31 23:01:00,
2013-01-31 15:06:00,60.9,49.5,30.15,NNW,340,5.0,7.0,66,0.00,,,0.00,WeatherTracker,2013-01-31 23:06:00,
2013-01-31 15:11:00,61.1,49.2,30.15,NNW,338,4.0,7.0,65,0.00,,,0.00,WeatherTracker,2013-01-31 23:11:00,
2013-01-31 15:16:00,61.0,49.1,30.15,NW,319,4.0,7.0,65,0.00,,,0.00,WeatherTracker,2013-01-31 23:16:00,
2013-01-31 15:21:00,61.0,48.7,30.15,NNW,334,4.0,9.0,64,0.00,,,0.00,WeatherTracker,2013-01-31 23:21:00,
2013-01-31 15:26:00,61.3,49.0,30.15,NW,322,5.0,9.0,64,0.00,,,0.00,WeatherTracker,2013-01-31 23:26:00,
2013-01-31 15:31:00,61.4,48.7,30.14,NW,308,5.0,7.0,63,0.00,,,0.00,WeatherTracker,2013-01-31 23:31:00,
2013-01-31 15:37:00,61.5,49.2,30.14,NW,326,3.0,7.0,64,0.00,,,0.00,WeatherTracker,2013-01-31 23:37:00,
2013-01-31 15:42:00,61.4,48.7,30.14,NNW,327,4.0,7.0,63,0.00,,,0.00,WeatherTracker,2013-01-31 23:42:00,
2013-01-31 15:47:00,61.5,48.8,30.14,NNW,333,5.0,8.0,63,0.00,,,0.00,WeatherTracker,2013-01-31 23:47:00,
2013-01-31 15:52:00,61.6,48.9,30.14,NW,318,3.0,8.0,63,0.00,,,0.00,WeatherTracker,2013-01-31 23:52:00,
2013-01-31 15:57:00,61.7,49.0,30.14,NNW,330,5.0,6.0,63,0.00,,,0.00,WeatherTracker,2013-01-31 23:57:00,
2013-01-31 16:02:00,61.7,48.5,30.14,NNW,327,3.0,7.0,62,0.00,,,0.00,WeatherTracker,2013-02-01 00:02:00,
2013-01-31 16:07:00,61.8,48.2,30.14,NW,319,4.0,7.0,61,0.00,,,0.00,WeatherTracker,2013-02-01 00:07:00,
2013-01-31 16:12:00,61.9,48.3,30.14,NNW,345,5.0,7.0,61,0.00,,,0.00,WeatherTracker,2013-02-01 00:12:00,
2013-01-31 16:17:00,61.8,48.2,30.14,WNW,288,3.0,7.0,61,0.00,,,0.00,WeatherTracker,2013-02-01 00:17:00,
2013-01-31 16:22:00,61.8,48.6,30.14,NW,313,3.0,7.0,62,0.00,,,0.00,WeatherTracker,2013-02-01 00:22:00,
2013-01-31 16:27:00,61.1,48.4,30.14,NW,314,4.0,6.0,63,0.00,,,0.00,WeatherTracker,2013-02-01 00:27:00,
2013-01-31 16:32:00,60.4,48.2,30.13,NW,313,3.0,6.0,64,0.00,,,0.00,WeatherTracker,2013-02-01 00:32:00,
2013-01-31 16:37:00,60.0,47.8,30.13,NW,307,3.0,6.0,64,0.00,,,0.00,WeatherTracker,2013-02-01 00:37:00,
2013-01-31 16:42:00,59.8,48.0,30.13,NW,321,3.0,6.0,65,0.00,,,0.00,WeatherTracker,2013-02-01 00:42:00,
2013-01-31 16:47:00,59.5,47.7,30.13,NNW,331,3.0,6.0,65,0.00,,,0.00,WeatherTracker,2013-02-01 00:47:00,
2013-01-31 16:52:00,59.5,47.7,30.13,NW,309,5.0,6.0,65,0.00,,,0.00,WeatherTracker,2013-02-01 00:52:00,
2013-01-31 16:57:00,59.7,47.9,30.13,WNW,298,4.0,6.0,65,0.00,,,0.00,WeatherTracker,2013-02-01 00:57:00,
2013-01-31 17:02:00,59.6,47.8,30.13,NW,304,3.0,5.0,65,0.00,,,0.00,WeatherTracker,2013-02-01 01:02:00,
2013-01-31 17:07:00,59.5,47.7,30.13,WNW,297,6.0,6.0,65,0.00,,,0.00,WeatherTracker,2013-02-01 01:07:00,
2013-01-31 17:13:00,59.5,47.7,30.13,NNW,333,5.0,6.0,65,0.00,,,0.00,WeatherTracker,2013-02-01 01:13:00,
2013-01-31 17:18:00,59.3,47.5,30.13,NW,311,4.0,7.0,65,0.00,,,0.00,WeatherTracker,2013-02-01 01:18:00,
2013-01-31 17:23:00,59.2,47.4,30.13,NW,315,3.0,7.0,65,0.00,,,0.00,WeatherTracker,2013-02-01 01:23:00,
2013-01-31 17:28:00,59.3,47.5,30.13,NW,307,3.0,8.0,65,0.00,,,0.00,WeatherTracker,2013-02-01 01:28:00,
2013-01-31 17:33:00,59.3,47.5,30.12,NW,315,4.0,8.0,65,0.00,,,0.00,WeatherTracker,2013-02-01 01:33:00,
2013-01-31 17:38:00,59.3,47.5,30.12,NNW,327,4.0,6.0,65,0.00,,,0.00,WeatherTracker,2013-02-01 01:38:00,
2013-01-31 17:43:00,59.1,47.3,30.12,NW,304,1.0,8.0,65,0.00,,,0.00,WeatherTracker,2013-02-01 01:43:00,
2013-01-31 17:48:00,58.7,47.4,30.12,NW,309,5.0,8.0,66,0.00,,,0.00,WeatherTracker,2013-02-01 01:48:00,
2013-01-31 17:53:00,58.5,47.6,30.12,NW,324,3.0,7.0,67,0.00,,,0.00,WeatherTracker,2013-02-01 01:53:00,
2013-01-31 17:58:00,58.6,47.7,30.12,NW,311,4.0,7.0,67,0.00,,,0.00,WeatherTracker,2013-02-01 01:58:00,
2013-01-31 18:03:00,58.9,47.6,30.12,NW,318,5.0,7.0,66,0.00,,,0.00,WeatherTracker,2013-02-01 02:03:00,
2013-01-31 18:08:00,58.8,47.5,30.12,NW,311,4.0,7.0,66,0.00,,,0.00,WeatherTracker,2013-02-01 02:08:00,
2013-01-31 18:13:00,58.7,47.8,30.12,NW,309,5.0,7.0,67,0.00,,,0.00,WeatherTracker,2013-02-01 02:13:00,
2013-01-31 18:18:00,58.7,47.8,30.12,WNW,298,6.0,7.0,67,0.00,,,0.00,WeatherTracker,2013-02-01 02:18:00,
2013-01-31 18:23:00,58.7,47.4,30.12,WNW,297,4.0,9.0,66,0.00,,,0.00,WeatherTracker,2013-02-01 02:23:00,
2013-01-31 18:28:00,58.6,47.7,30.13,WNW,289,5.0,9.0,67,0.00,,,0.00,WeatherTracker,2013-02-01 02:28:00,
2013-01-31 18:34:00,58.7,47.4,30.13,WNW,295,4.0,7.0,66,0.00,,,0.00,WeatherTracker,2013-02-01 02:34:00,
2013-01-31 18:39:00,58.7,47.8,30.13,WNW,300,4.0,7.0,67,0.00,,,0.00,WeatherTracker,2013-02-01 02:39:00,
2013-01-31 18:44:00,58.7,47.8,30.13,WNW,303,10.0,10.0,67,0.00,,,0.00,WeatherTracker,2013-02-01 02:44:00,
2013-01-31 18:49:00,58.9,48.0,30.13,NW,315,11.0,11.0,67,0.00,,,0.00,WeatherTracker,2013-02-01 02:49:00,
2013-01-31 18:54:00,58.9,47.6,30.13,WNW,288,6.0,11.0,66,0.00,,,0.00,WeatherTracker,2013-02-01 02:54:00,
2013-01-31 18:59:00,58.6,47.3,30.13,NW,309,4.0,11.0,66,0.00,,,0.00,WeatherTracker,2013-02-01 02:59:00,
2013-01-31 19:04:00,57.8,47.7,30.13,NNW,336,4.0,7.0,69,0.00,,,0.00,WeatherTracker,2013-02-01 03:04:00,
2013-01-31 19:09:00,56.7,47.4,30.13,NNW,329,3.0,6.0,71,0.00,,,0.00,WeatherTracker,2013-02-01 03:09:00,
2013-01-31 19:14:00,55.9,47.4,30.13,NNW,331,4.0,6.0,73,0.00,,,0.00,WeatherTracker,2013-02-01 03:14:00,
2013-01-31 19:19:00,55.5,47.3,30.13,NNW,333,2.0,6.0,74,0.00,,,0.00,WeatherTracker,2013-02-01 03:19:00,
2013-01-31 19:24:00,55.4,47.3,30.13,NW,319,4.0,5.0,74,0.00,,,0.00,WeatherTracker,2013-02-01 03:24:00,
2013-01-31 19:29:00,56.1,47.6,30.13,NNW,333,4.0,8.0,73,0.00,,,0.00,WeatherTracker,2013-02-01 03:29:00,
2013-01-31 19:34:00,56.4,47.5,30.13,WNW,299,5.0,8.0,72,0.00,,,0.00,WeatherTracker,2013-02-01 03:34:00,
2013-01-31 19:39:00,56.5,47.6,30.13,North,355,6.0,9.0,72,0.00,,,0.00,WeatherTracker,2013-02-01 03:39:00,
2013-01-31 19:44:00,56.6,47.7,30.13,North,350,7.0,11.0,72,0.00,,,0.00,WeatherTracker,2013-02-01 03:44:00,
2013-01-31 19:50:00,56.6,47.7,30.13,NNW,338,4.0,11.0,72,0.00,,,0.00,WeatherTracker,2013-02-01 03:50:00,
2013-01-31 19:55:00,56.7,47.8,30.13,NW,304,7.0,11.0,72,0.00,,,0.00,WeatherTracker,2013-02-01 03:55:00,
2013-01-31 20:00:00,56.6,47.7,30.13,NNW,344,6.0,10.0,72,0.00,,,0.00,WeatherTracker,2013-02-01 04:00:00,
2013-01-31 20:05:00,56.6,47.7,30.13,WNW,297,9.0,10.0,72,0.00,,,0.00,WeatherTracker,2013-02-01 04:05:00,
2013-01-31 20:10:00,56.6,47.7,30.13,NW,313,5.0,10.0,72,0.00,,,0.00,WeatherTracker,2013-02-01 04:10:00,
2013-01-31 20:15:00,56.4,47.5,30.13,WNW,296,6.0,10.0,72,0.00,,,0.00,WeatherTracker,2013-02-01 04:15:00,
2013-01-31 20:20:00,56.4,47.5,30.13,NW,311,3.0,8.0,72,0.00,,,0.00,WeatherTracker,2013-02-01 04:20:00,
2013-01-31 20:25:00,56.5,47.6,30.13,WNW,298,6.0,8.0,72,0.00,,,0.00,WeatherTracker,2013-02-01 04:25:00,
2013-01-31 20:30:00,56.8,47.5,30.13,NW,322,3.0,9.0,71,0.00,,,0.00,WeatherTracker,2013-02-01 04:30:00,
2013-01-31 20:35:00,56.8,47.5,30.13,NW,309,4.0,9.0,71,0.00,,,0.00,WeatherTracker,2013-02-01 04:35:00,
2013-01-31 20:40:00,56.4,47.5,30.13,NW,325,5.0,9.0,72,0.00,,,0.00,WeatherTracker,2013-02-01 04:40:00,
2013-01-31 20:45:00,56.1,47.2,30.13,NW,321,6.0,9.0,72,0.00,,,0.00,WeatherTracker,2013-02-01 04:45:00,
2013-01-31 20:50:00,55.9,47.4,30.13,NW,314,4.0,9.0,73,0.00,,,0.00,WeatherTracker,2013-02-01 04:50:00,
2013-01-31 20:55:00,55.6,47.1,30.13,NW,317,7.0,8.0,73,0.00,,,0.00,WeatherTracker,2013-02-01 04:55:00,
2013-01-31 21:00:00,55.4,47.3,30.13,NW,317,6.0,10.0,74,0.00,,,0.00,WeatherTracker,2013-02-01 05:00:00,
2013-01-31 21:01:00,55.4,47.3,30.13,NW,309,7.0,10.0,74,0.00,,,0.00,WeatherTracker,2013-02-01 05:01:00,
2013-01-31 21:03:00,55.4,47.3,30.13,NW,315,4.0,10.0,74,0.00,,,0.00,WeatherTracker,2013-02-01 05:03:00,
2013-01-31 21:08:00,55.4,47.3,30.13,NW,324,4.0,10.0,74,0.00,,,0.00,WeatherTracker,2013-02-01 05:08:00,
2013-01-31 21:13:00,55.4,47.3,30.13,NW,304,6.0,7.0,74,0.00,,,0.00,WeatherTracker,2013-02-01 05:13:00,
2013-01-31 21:18:00,55.4,47.3,30.13,NW,309,3.0,9.0,74,0.00,,,0.00,WeatherTracker,2013-02-01 05:18:00,
2013-01-31 21:23:00,55.3,47.2,30.13,NW,311,3.0,9.0,74,0.00,,,0.00,WeatherTracker,2013-02-01 05:23:00,
2013-01-31 21:28:00,55.0,47.2,30.13,NW,310,6.0,9.0,75,0.00,,,0.00,WeatherTracker,2013-02-01 05:28:00,
2013-01-31 21:33:00,54.9,47.1,30.13,NW,322,3.0,9.0,75,0.00,,,0.00,WeatherTracker,2013-02-01 05:33:00,
2013-01-31 21:38:00,54.8,47.0,30.13,NW,314,8.0,9.0,75,0.00,,,0.00,WeatherTracker,2013-02-01 05:38:00,
2013-01-31 21:43:00,54.9,47.1,30.13,NNW,333,4.0,9.0,75,0.00,,,0.00,WeatherTracker,2013-02-01 05:43:00,
2013-01-31 21:49:00,54.8,47.0,30.13,NNW,344,5.0,10.0,75,0.00,,,0.00,WeatherTracker,2013-02-01 05:49:00,
2013-01-31 21:54:00,54.5,47.1,30.13,NW,321,4.0,10.0,76,0.00,,,0.00,WeatherTracker,2013-02-01 05:54:00,
2013-01-31 21:59:00,54.3,47.2,30.13,NW,315,4.0,10.0,77,0.00,,,0.00,WeatherTracker,2013-02-01 05:59:00,
2013-01-31 22:04:00,54.2,47.1,30.13,NW,315,6.0,10.0,77,0.00,,,0.00,WeatherTracker,2013-02-01 06:04:00,
2013-01-31 22:09:00,54.4,47.3,30.13,NW,309,4.0,8.0,77,0.00,,,0.00,WeatherTracker,2013-02-01 06:09:00,
2013-01-31 22:14:00,54.4,47.0,30.13,NNW,333,4.0,9.0,76,0.00,,,0.00,WeatherTracker,2013-02-01 06:14:00,
2013-01-31 22:19:00,54.2,47.1,30.13,NW,314,4.0,9.0,77,0.00,,,0.00,WeatherTracker,2013-02-01 06:19:00,
2013-01-31 22:24:00,54.6,47.5,30.13,WNW,299,3.0,7.0,77,0.00,,,0.00,WeatherTracker,2013-02-01 06:24:00,
2013-01-31 22:29:00,54.6,47.2,30.13,NW,311,5.0,9.0,76,0.00,,,0.00,WeatherTracker,2013-02-01 06:29:00,
2013-01-31 22:34:00,54.8,47.4,30.13,NW,314,4.0,9.0,76,0.00,,,0.00,WeatherTracker,2013-02-01 06:34:00,
2013-01-31 22:39:00,54.7,47.3,30.13,NW,317,6.0,9.0,76,0.00,,,0.00,WeatherTracker,2013-02-01 06:39:00,
2013-01-31 22:44:00,54.5,47.1,30.13,NW,322,5.0,9.0,76,0.00,,,0.00,WeatherTracker,2013-02-01 06:44:00,
2013-01-31 22:49:00,54.2,46.8,30.13,NW,306,5.0,9.0,76,0.00,,,0.00,WeatherTracker,2013-02-01 06:49:00,
2013-01-31 22:54:00,54.2,46.8,30.13,NNW,332,5.0,9.0,76,0.00,,,0.00,WeatherTracker,2013-02-01 06:54:00,
2013-01-31 22:59:00,54.2,46.8,30.13,NNW,331,5.0,9.0,76,0.00,,,0.00,WeatherTracker,2013-02-01 06:59:00,
2013-01-31 23:04:00,54.1,47.1,30.13,NW,315,5.0,7.0,77,0.00,,,0.00,WeatherTracker,2013-02-01 07:04:00,
2013-01-31 23:09:00,54.1,47.1,30.13,NW,316,4.0,7.0,77,0.00,,,0.00,WeatherTracker,2013-02-01 07:09:00,
2013-01-31 23:14:00,54.0,47.0,30.13,NNW,342,6.0,9.0,77,0.00,,,0.00,WeatherTracker,2013-02-01 07:14:00,
2013-01-31 23:19:00,53.9,46.9,30.13,NW,317,3.0,9.0,77,0.00,,,0.00,WeatherTracker,2013-02-01 07:19:00,
2013-01-31 23:24:00,53.9,46.9,30.13,NNW,340,5.0,9.0,77,0.00,,,0.00,WeatherTracker,2013-02-01 07:24:00,
2013-01-31 23:29:00,53.9,46.9,30.13,NNW,335,5.0,9.0,77,0.00,,,0.00,WeatherTracker,2013-02-01 07:29:00,
2013-01-31 23:34:00,53.8,46.8,30.13,NW,318,4.0,9.0,77,0.00,,,0.00,WeatherTracker,2013-02-01 07:34:00,
2013-01-31 23:39:00,53.5,46.8,30.13,NW,326,6.0,9.0,78,0.00,,,0.00,WeatherTracker,2013-02-01 07:39:00,
2013-01-31 23:45:00,53.4,46.7,30.13,NW,317,3.0,11.0,78,0.00,,,0.00,WeatherTracker,2013-02-01 07:45:00,
2013-01-31 23:50:00,53.2,46.5,30.13,NW,321,4.0,11.0,78,0.00,,,0.00,WeatherTracker,2013-02-01 07:50:00,
2013-01-31 23:55:00,52.9,46.6,30.13,North,350,5.0,8.0,79,0.00,,,0.00,WeatherTracker,2013-02-01 07:55:00,